Time;durP1;ratioP1;P1;durP2;ratioP2;P2;SDS_P1;SDS_P2;PMS_P1;PMS_P2;Temp;Humidity;BMP_temperature;BMP_pressure;BME280_temperature;BME280_humidity;BME280_pressure;Samples;Min_cycle;Max_cycle;Signal;HPM_P1;HPM_P2
2022/11/13 00:01:42;;;;;;;1.38;0.45;;;;;;;9.83;54.71;99063.28;6122159;23;20028;-84
2022/11/13 00:04:26;;;;;;;1.67;0.40;;;;;;;9.52;54.25;98979.81;6101828;23;20018;-82
2022/11/13 00:07:11;;;;;;;0.80;0.30;;;;;;;9.85;54.31;99060.66;6078114;23;20066;-81
2022/11/13 00:09:56;;;;;;;2.65;0.80;;;;;;;10.20;54.34;99099.00;6078275;23;20113;-82
2022/11/13 00:12:41;;;;;;;0.68;0.30;;;;;;;9.85;53.80;99043.31;6085519;23;20018;-81
2022/11/13 00:15:25;;;;;;;1.65;0.50;;;;;;;10.48;53.84;99134.06;6121007;23;20018;-84
2022/11/13 00:18:10;;;;;;;2.15;0.50;;;;;;;9.85;53.56;99022.53;6068222;23;20049;-84
2022/11/13 00:20:56;;;;;;;3.33;0.40;;;;;;;10.45;53.33;99111.59;6088082;23;20023;-82
2022/11/13 00:23:41;;;;;;;1.05;0.40;;;;;;;9.57;53.24;98968.50;6091273;23;20014;-82
2022/11/13 00:26:28;;;;;;;2.97;0.63;;;;;;;10.02;53.47;99073.38;6094192;23;20024;-80
2022/11/13 00:29:13;;;;;;;0.30;0.30;;;;;;;10.17;53.09;99125.06;6094109;23;20005;-80
2022/11/13 00:31:58;;;;;;;1.23;0.40;;;;;;;9.80;53.31;99084.97;6092291;23;20026;-82
2022/11/13 00:34:46;;;;;;;0.90;0.50;;;;;;;9.58;53.14;99070.63;6118042;23;20178;-85
2022/11/13 00:37:31;;;;;;;0.52;0.30;;;;;;;9.82;53.19;99099.69;6092672;23;20018;-83
2022/11/13 00:40:16;;;;;;;1.50;0.40;;;;;;;9.63;53.30;99079.22;6092623;23;20018;-83
2022/11/13 00:43:01;;;;;;;1.77;0.45;;;;;;;9.84;53.30;99158.53;6116241;23;20041;-81
2022/11/13 00:45:46;;;;;;;1.23;0.32;;;;;;;9.46;53.32;99069.97;6058896;23;20041;-81
2022/11/13 00:48:31;;;;;;;1.20;0.40;;;;;;;9.64;53.51;99117.31;6069953;23;20042;-82
2022/11/13 00:51:16;;;;;;;0.45;0.30;;;;;;;9.27;52.95;99066.78;6068435;23;20082;-82
2022/11/13 00:54:00;;;;;;;4.32;0.40;;;;;;;9.21;53.03;99059.09;6087645;23;20431;-82
2022/11/13 00:57:06;;;;;;;0.93;0.43;;;;;;;9.76;53.07;99161.25;6087667;23;20082;-85
2022/11/13 00:59:51;;;;;;;0.95;0.35;;;;;;;9.76;53.16;99134.44;6067812;23;20397;-83
2022/11/13 01:02:36;;;;;;;0.93;0.50;;;;;;;8.88;52.80;98999.88;6088267;23;20029;-82
2022/11/13 01:05:21;;;;;;;1.85;0.50;;;;;;;9.45;52.97;99098.53;6098415;23;20002;-82
2022/11/13 01:08:06;;;;;;;2.17;0.80;;;;;;;9.47;52.98;99087.25;6069844;23;20082;-81
2022/11/13 01:10:51;;;;;;;0.60;0.32;;;;;;;9.17;52.83;99057.41;6088373;23;20371;-81
2022/11/13 01:13:37;;;;;;;3.88;0.50;;;;;;;8.95;52.72;99034.38;6113534;23;20029;-81
2022/11/13 01:16:25;;;;;;;2.15;0.57;;;;;;;9.47;52.84;99105.44;6088281;23;20026;-82
2022/11/13 01:19:10;;;;;;;1.58;0.60;;;;;;;9.17;52.70;99054.81;6111090;23;20018;-82
2022/11/13 01:21:54;;;;;;;0.30;0.17;;;;;;;9.84;52.97;99163.72;6085899;23;20025;-80
2022/11/13 01:24:39;;;;;;;0.40;0.40;;;;;;;9.71;52.95;99136.25;6047410;23;20457;-84
2022/11/13 01:27:24;;;;;;;1.13;0.40;;;;;;;9.01;52.68;99016.13;6085030;23;20046;-82
2022/11/13 01:30:10;;;;;;;1.08;0.40;;;;;;;9.33;53.25;99063.22;6085530;23;20014;-82
2022/11/13 01:32:54;;;;;;;1.85;0.38;;;;;;;9.43;53.00;99095.09;6085549;23;20061;-81
2022/11/13 01:35:39;;;;;;;1.25;0.40;;;;;;;9.28;52.82;99060.72;6086549;23;20014;-82
2022/11/13 01:38:24;;;;;;;0.45;0.30;;;;;;;9.37;53.02;99064.06;6107620;23;20100;-81
2022/11/13 01:41:32;;;;;;;1.35;0.50;;;;;;;9.55;52.77;99097.53;6105623;23;20021;-81
2022/11/13 01:44:18;;;;;;;0.50;0.50;;;;;;;9.52;52.46;99086.31;6057145;23;20079;-82
2022/11/13 01:47:04;;;;;;;2.70;0.60;;;;;;;9.32;52.68;99066.72;6103462;23;20021;-84
2022/11/13 01:49:59;;;;;;;0.75;0.43;;;;;;;9.50;52.47;99089.78;6078191;23;20014;-86
2022/11/13 01:52:46;;;;;;;0.50;0.30;;;;;;;9.72;52.66;99128.41;6077788;23;20022;-81
2022/11/13 01:55:31;;;;;;;1.85;0.50;;;;;;;8.80;52.54;98996.56;6081293;23;20026;-86
2022/11/13 01:58:16;;;;;;;1.60;0.52;;;;;;;9.59;52.82;99122.56;6078292;23;20025;-84
2022/11/13 02:01:01;;;;;;;2.35;0.60;;;;;;;8.99;52.66;99042.97;6080407;23;20018;-81
2022/11/13 02:03:46;;;;;;;3.05;0.73;;;;;;;8.67;52.78;98984.63;6066537;23;20122;-82
2022/11/13 02:06:38;;;;;;;1.75;0.52;;;;;;;9.40;52.53;99134.97;6086797;23;20022;-81
2022/11/13 02:09:27;;;;;;;2.10;0.50;;;;;;;9.28;52.68;99116.97;6077497;23;20028;-84
2022/11/13 02:12:16;;;;;;;0.63;0.35;;;;;;;8.96;52.81;99066.38;6102030;23;20081;-82
2022/11/13 02:15:24;;;;;;;4.55;0.50;;;;;;;8.65;52.90;98986.38;6065460;23;20026;-82
2022/11/13 02:18:10;;;;;;;2.05;0.40;;;;;;;8.86;52.69;99024.13;6109326;23;20038;-81
2022/11/13 02:21:29;;;;;;;1.13;0.40;;;;;;;9.55;53.05;99123.50;6071006;23;20154;-82
2022/11/13 02:24:28;;;;;;;2.13;0.25;;;;;;;9.60;52.88;99123.41;6076886;23;20022;-83
2022/11/13 02:27:38;;;;;;;1.00;0.50;;;;;;;9.62;52.89;99127.69;6077276;23;20046;-84
2022/11/13 02:30:23;;;;;;;1.67;0.40;;;;;;;9.41;52.64;99091.66;6102286;23;20112;-82
2022/11/13 02:33:29;;;;;;;1.65;0.45;;;;;;;9.18;53.03;99072.09;6077424;23;20022;-85
2022/11/13 02:36:14;;;;;;;2.85;0.60;;;;;;;8.95;53.12;99038.72;6079187;23;20026;-81
2022/11/13 02:39:05;;;;;;;4.47;0.40;;;;;;;9.58;53.08;99144.22;6075452;23;20018;-81
2022/11/13 02:41:50;;;;;;;0.73;0.40;;;;;;;9.34;53.32;99090.91;6072912;23;20452;-83
2022/11/13 02:44:35;;;;;;;1.58;0.40;;;;;;;8.94;53.79;99024.88;6099238;23;20026;-84
2022/11/13 02:47:19;;;;;;;1.48;0.50;;;;;;;9.02;53.50;99037.75;6075150;23;20101;-83
2022/11/13 02:50:05;;;;;;;1.10;0.50;;;;;;;9.06;53.67;99025.59;6100458;23;20018;-82
2022/11/13 02:52:49;;;;;;;1.55;0.43;;;;;;;9.08;53.55;99024.66;6091695;23;20003;-82
2022/11/13 02:55:34;;;;;;;0.77;0.32;;;;;;;9.00;53.51;99018.75;6096343;23;20002;-84
2022/11/13 02:58:19;;;;;;;2.20;0.50;;;;;;;9.33;54.03;99108.25;6093012;23;20093;-83
2022/11/13 03:01:04;;;;;;;2.25;0.68;;;;;;;8.97;54.40;99065.50;6085381;23;20023;-82
2022/11/13 03:03:48;;;;;;;0.80;0.45;;;;;;;8.54;53.93;99002.09;6082676;23;20045;-84
2022/11/13 03:06:33;;;;;;;1.60;0.40;;;;;;;8.67;54.19;99031.31;6063347;23;20041;-83
2022/11/13 03:09:17;;;;;;;0.65;0.30;;;;;;;8.67;54.75;99019.22;6083833;23;20074;-80
2022/11/13 03:12:02;;;;;;;0.85;0.50;;;;;;;9.17;54.60;99098.94;6091573;23;20033;-83
2022/11/13 03:14:47;;;;;;;0.57;0.30;;;;;;;8.77;54.68;99056.25;6077393;23;20018;-81
2022/11/13 03:17:34;;;;;;;1.58;0.40;;;;;;;8.62;54.61;99028.78;6101090;23;20015;-82
2022/11/13 03:20:19;;;;;;;2.03;0.60;;;;;;;8.28;55.23;99000.63;6101970;23;20047;-83
2022/11/13 03:23:04;;;;;;;1.33;0.57;;;;;;;8.52;55.58;99029.75;6098084;23;20018;-82
2022/11/13 03:25:49;;;;;;;1.67;0.30;;;;;;;8.22;55.64;98967.03;6077272;23;19998;-82
2022/11/13 03:28:35;;;;;;;1.33;0.60;;;;;;;8.41;55.35;99011.72;6055345;23;20402;-85
2022/11/13 03:31:21;;;;;;;1.60;0.50;;;;;;;8.82;55.74;99070.03;6108775;23;20022;-81
2022/11/13 03:34:05;;;;;;;1.73;0.50;;;;;;;9.13;55.27;99079.13;6080867;23;20046;-83
2022/11/13 03:36:50;;;;;;;0.70;0.40;;;;;;;8.64;55.69;99011.47;6079504;23;20562;-83
2022/11/13 03:39:35;;;;;;;0.57;0.40;;;;;;;9.11;55.25;99093.84;6078815;23;20018;-83
2022/11/13 03:42:24;;;;;;;3.28;0.50;;;;;;;8.98;55.22;99068.06;6059379;23;20022;-83
2022/11/13 03:45:09;;;;;;;1.40;0.50;;;;;;;8.41;55.29;98980.59;6084412;23;20037;-81
2022/11/13 03:47:54;;;;;;;1.30;0.52;;;;;;;9.28;55.10;99125.63;6090467;23;20025;-83
2022/11/13 03:50:44;;;;;;;0.47;0.38;;;;;;;8.56;54.80;99008.97;6071410;23;20018;-82
2022/11/13 03:53:30;;;;;;;1.38;0.40;;;;;;;8.44;54.86;98994.41;6099266;23;20078;-80
2022/11/13 03:56:15;;;;;;;1.73;0.77;;;;;;;9.17;54.99;99141.34;6069799;23;20023;-83
2022/11/13 03:59:00;;;;;;;1.17;0.60;;;;;;;8.50;54.86;99015.97;6108228;23;20011;-84
2022/11/13 04:01:45;;;;;;;1.13;0.60;;;;;;;8.79;54.96;99082.16;6059997;23;20022;-84
2022/11/13 04:04:31;;;;;;;0.63;0.60;;;;;;;8.66;54.85;99084.06;6065274;23;20370;-84
2022/11/13 04:07:16;;;;;;;0.65;0.30;;;;;;;8.54;55.80;99095.44;6067343;23;20037;-82
2022/11/13 04:10:01;;;;;;;0.95;0.40;;;;;;;8.27;55.87;99066.34;6092023;23;20032;-83
2022/11/13 04:12:46;;;;;;;1.25;0.50;;;;;;;8.35;56.72;99063.66;6086703;23;20023;-82
2022/11/13 04:15:34;;;;;;;0.98;0.45;;;;;;;8.73;56.46;99128.06;6086798;23;20021;-83
2022/11/13 04:18:19;;;;;;;0.70;0.40;;;;;;;8.72;56.21;99123.75;6065927;23;20479;-82
2022/11/13 04:21:05;;;;;;;1.45;0.50;;;;;;;8.55;56.51;99133.47;6084741;23;20025;-88
2022/11/13 04:23:50;;;;;;;1.05;0.45;;;;;;;8.26;56.44;99093.97;6081553;23;20077;-84
2022/11/13 04:26:39;;;;;;;1.05;0.50;;;;;;;7.14;56.86;98953.47;6065215;23;20014;-83
2022/11/13 04:29:23;;;;;;;0.32;0.30;;;;;;;7.44;57.10;98995.50;6093455;23;20025;-84
2022/11/13 04:32:08;;;;;;;1.23;0.40;;;;;;;8.21;56.52;99141.56;6062634;23;20073;-84
2022/11/13 04:34:53;;;;;;;0.40;0.35;;;;;;;7.01;56.20;98926.84;6089106;23;20025;-83
2022/11/13 04:37:38;;;;;;;0.45;0.20;;;;;;;7.34;56.29;98982.63;6062031;23;20097;-83
2022/11/13 04:40:26;;;;;;;1.45;0.50;;;;;;;8.25;56.00;99091.44;6081214;23;20010;-84
2022/11/13 04:43:11;;;;;;;0.95;0.40;;;;;;;8.22;56.05;99102.66;6065211;23;20025;-81
2022/11/13 04:45:56;;;;;;;0.43;0.40;;;;;;;8.45;55.54;99109.34;6107616;23;20078;-83
2022/11/13 04:48:44;;;;;;;0.77;0.45;;;;;;;8.10;55.30;99062.19;6103289;23;20027;-84
2022/11/13 04:51:37;;;;;;;1.25;0.40;;;;;;;8.19;54.96;99060.38;6081045;23;20049;-85
2022/11/13 04:54:24;;;;;;;1.30;0.40;;;;;;;7.98;54.52;99067.50;6103739;23;20018;-82
2022/11/13 04:57:08;;;;;;;0.52;0.40;;;;;;;8.35;54.76;99131.91;6073275;23;20018;-84
2022/11/13 04:59:53;;;;;;;1.00;0.30;;;;;;;7.91;54.56;99074.47;6081139;23;20018;-83
2022/11/13 05:02:38;;;;;;;0.77;0.40;;;;;;;8.19;54.95;99117.41;6057044;23;20477;-86
2022/11/13 05:05:22;;;;;;;0.50;0.50;;;;;;;8.34;54.46;99158.72;6080935;23;20046;-84
2022/11/13 05:08:07;;;;;;;2.38;0.63;;;;;;;8.26;54.29;99169.16;6102413;23;20050;-83
2022/11/13 05:10:52;;;;;;;1.80;0.45;;;;;;;7.28;54.22;99000.81;6055699;23;20018;-86
2022/11/13 05:13:47;;;;;;;2.15;0.50;;;;;;;7.18;54.15;98981.03;6087301;23;20026;-86
2022/11/13 05:16:35;;;;;;;2.65;0.47;;;;;;;8.43;54.61;99186.28;6083773;23;20018;-85
2022/11/13 05:19:36;;;;;;;1.52;0.40;;;;;;;7.76;54.61;99041.81;6080104;23;20017;-84
2022/11/13 05:23:08;;;;;;;1.63;0.45;;;;;;;8.61;54.32;99174.91;6063546;23;20022;-85
2022/11/13 05:26:56;;;;;;;0.93;0.40;;;;;;;7.41;54.17;98978.25;6039521;23;20022;-84
2022/11/13 05:30:14;;;;;;;3.40;0.80;;;;;;;7.61;54.07;99021.25;6079630;23;20022;-85
2022/11/13 05:32:59;;;;;;;0.80;0.43;;;;;;;8.26;53.78;99098.31;6076503;23;20083;-84
2022/11/13 05:35:47;;;;;;;1.80;0.50;;;;;;;7.82;53.76;99035.69;6083760;23;20022;-87
2022/11/13 05:38:31;;;;;;;1.77;0.50;;;;;;;8.66;54.20;99164.47;6078724;23;20014;-86
2022/11/13 05:41:18;;;;;;;1.90;0.40;;;;;;;8.39;53.90;99138.78;6072959;23;20036;-84
2022/11/13 05:44:07;;;;;;;1.10;0.50;;;;;;;7.99;53.76;99066.63;6099205;23;20006;-84
2022/11/13 05:46:52;;;;;;;0.98;0.63;;;;;;;8.55;53.70;99172.34;6097213;23;20029;-82
2022/11/13 05:49:37;;;;;;;0.55;0.40;;;;;;;8.50;53.91;99179.31;6119479;23;20066;-84
2022/11/13 05:52:22;;;;;;;0.80;0.40;;;;;;;8.13;54.62;99134.72;6091911;23;20025;-85
2022/11/13 05:55:07;;;;;;;1.20;0.40;;;;;;;7.45;54.62;98977.34;6119920;23;20028;-82
2022/11/13 05:57:52;;;;;;;3.22;0.93;;;;;;;7.71;54.65;98955.53;6096862;23;20034;-83
2022/11/13 06:01:17;;;;;;;1.48;0.40;;;;;;;10.78;54.41;99075.34;6052228;23;20023;-83
2022/11/13 06:04:15;;;;;;;0.80;0.40;;;;;;;10.03;52.53;98943.34;6066137;23;20095;-86
2022/11/13 06:07:02;;;;;;;0.30;0.30;;;;;;;9.94;52.35;99024.97;6083283;23;20021;-85
2022/11/13 06:09:47;;;;;;;1.80;0.90;;;;;;;9.75;51.90;99044.38;6054928;23;20049;-83
2022/11/13 06:12:38;;;;;;;3.20;0.83;;;;;;;9.06;51.79;98992.69;6080666;23;20022;-86
2022/11/13 06:15:25;;;;;;;1.88;0.50;;;;;;;9.27;51.53;99095.34;6103281;23;20018;-85
2022/11/13 06:18:10;;;;;;;1.52;0.50;;;;;;;8.89;52.07;99141.69;6055060;23;20121;-85
2022/11/13 06:21:03;;;;;;;1.20;0.50;;;;;;;8.74;52.45;99132.38;6076287;23;20076;-86
2022/11/13 06:23:51;;;;;;;1.30;0.40;;;;;;;8.48;53.20;99139.56;6076163;23;20428;-81
2022/11/13 06:26:36;;;;;;;2.28;0.47;;;;;;;8.24;54.07;99027.50;6078336;23;20056;-82
2022/11/13 06:29:23;;;;;;;0.63;0.50;;;;;;;9.81;54.32;99153.41;6098829;23;20022;-84
2022/11/13 06:32:19;;;;;;;1.30;0.60;;;;;;;11.06;54.76;99271.75;6076179;23;20050;-86
2022/11/13 06:35:42;;;;;;;3.85;0.60;;;;;;;11.68;53.36;99221.84;6072150;23;20105;-84
2022/11/13 07:00:01;;;;;;;2.42;0.52;;;;;;;16.96;44.12;99275.41;5777288;24;20031;-84
2022/11/13 07:07:12;;;;;;;0.95;0.50;;;;;;;15.78;43.12;99117.50;5761887;25;20028;-86
2022/11/13 07:10:55;;;;;;;3.05;0.50;;;;;;;17.16;42.63;99122.09;5779199;24;20031;-86
2022/11/13 07:14:25;;;;;;;0.55;0.55;;;;;;;17.70;40.48;99187.91;5779484;24;20050;-87
2022/11/13 07:17:33;;;;;;;0.40;0.40;;;;;;;18.92;38.81;99214.34;5936940;24;20016;-86
2022/11/13 07:20:23;;;;;;;0.70;0.50;;;;;;;20.20;38.68;99235.53;5955613;23;20026;-85
2022/11/13 07:23:09;;;;;;;0.52;0.50;;;;;;;20.39;36.72;99171.94;6099276;23;20021;-83
2022/11/13 07:26:03;;;;;;;1.52;0.32;;;;;;;21.33;34.70;99254.44;6075293;23;20002;-85
2022/11/13 07:28:51;;;;;;;0.52;0.50;;;;;;;20.95;34.50;99242.63;6091529;23;20015;-84
2022/11/13 07:31:42;;;;;;;0.60;0.52;;;;;;;20.49;33.87;99258.56;6093100;23;20022;-83
2022/11/13 07:34:27;;;;;;;1.00;0.40;;;;;;;18.80;33.76;99221.97;6066954;23;20022;-81
2022/11/13 07:37:15;;;;;;;2.40;0.60;;;;;;;19.94;34.58;99305.69;6096534;23;20022;-82
2022/11/13 07:40:04;;;;;;;1.83;0.50;;;;;;;18.52;33.21;99110.13;6077799;23;20022;-88
2022/11/13 07:43:19;;;;;;;2.40;0.50;;;;;;;18.21;34.07;99322.34;6087360;23;20046;-88
2022/11/13 07:47:04;;;;;;;1.83;0.57;;;;;;;16.57;34.92;99321.66;6081358;23;20111;-85
2022/11/13 07:50:50;;;;;;;0.88;0.45;;;;;;;14.60;36.00;99094.06;6010242;23;20049;-86
2022/11/13 07:54:03;;;;;;;0.55;0.40;;;;;;;14.27;36.95;99193.81;5983122;24;20028;-85
2022/11/13 07:57:26;;;;;;;;;;;;;;;;;;;;;
2022/11/13 08:01:02;;;;;;;2.65;0.50;;;;;;;13.58;37.83;99275.31;5871136;24;20091;-87
2022/11/13 08:04:18;;;;;;;0.50;0.40;;;;;;;14.08;37.88;99272.03;6085041;23;20018;-85
2022/11/13 08:07:03;;;;;;;0.98;0.45;;;;;;;14.40;37.92;99251.81;6062183;23;20041;-84
2022/11/13 08:09:47;;;;;;;2.42;0.60;;;;;;;16.37;36.39;99214.84;6107116;23;20356;-84
2022/11/13 08:12:32;;;;;;;1.45;0.95;;;;;;;17.62;34.88;99350.50;6076659;23;20023;-84
2022/11/13 08:16:00;;;;;;;1.27;0.50;;;;;;;16.54;34.81;99311.31;6069798;23;20049;-85
2022/11/13 08:18:59;;;;;;;0.40;0.40;;;;;;;14.50;35.91;99147.66;6108595;23;20021;-85
2022/11/13 08:21:53;;;;;;;0.85;0.40;;;;;;;14.73;36.08;99248.97;6083857;23;20128;-81
2022/11/13 08:24:52;;;;;;;1.95;0.43;;;;;;;14.77;35.73;99273.31;6098747;23;20018;-85
2022/11/13 08:28:25;;;;;;;1.65;0.60;;;;;;;15.49;35.86;99146.63;6101641;23;20014;-83
2022/11/13 08:31:19;;;;;;;0.50;0.45;;;;;;;17.50;34.88;99203.78;6071175;23;20038;-83
2022/11/13 08:34:05;;;;;;;0.77;0.50;;;;;;;18.29;32.94;99282.47;6065679;23;20552;-84
2022/11/13 08:37:05;;;;;;;1.40;0.70;;;;;;;18.12;32.61;99216.66;6118320;23;20019;-87
2022/11/13 08:39:53;;;;;;;0.75;0.25;;;;;;;18.14;32.00;99256.91;6118410;23;19998;-83
2022/11/13 08:42:47;;;;;;;1.77;0.47;;;;;;;17.45;33.04;99257.44;6097020;23;20114;-84
2022/11/13 08:45:32;;;;;;;1.13;0.40;;;;;;;16.15;33.36;99223.63;6079086;23;20029;-87
2022/11/13 08:48:46;;;;;;;0.98;0.50;;;;;;;17.41;33.97;99276.91;6094313;23;20018;-81
2022/11/13 08:51:31;;;;;;;1.55;0.80;;;;;;;18.62;33.32;99389.78;6075749;23;20045;-84
2022/11/13 08:54:16;;;;;;;1.33;0.60;;;;;;;19.83;32.32;99320.28;6098450;23;20045;-84
2022/11/13 08:57:19;;;;;;;;;;;;;;;;;;;;;
2022/11/13 09:00:05;;;;;;;1.77;0.40;;;;;;;17.69;31.70;99296.69;6096008;23;20010;-83
2022/11/13 09:03:30;;;;;;;0.50;0.43;;;;;;;15.76;33.14;99135.09;6088830;23;20014;-84
2022/11/13 09:06:51;;;;;;;2.15;0.55;;;;;;;15.87;33.11;99164.38;6098861;23;20022;-84
2022/11/13 09:09:42;;;;;;;1.13;0.50;;;;;;;16.66;33.31;99400.09;6078280;23;20104;-85
2022/11/13 09:12:36;;;;;;;2.33;0.60;;;;;;;15.00;33.70;99219.25;6094862;23;20073;-83
2022/11/13 09:16:04;;;;;;;3.10;0.40;;;;;;;14.93;34.46;99223.84;6086725;23;20066;-82
2022/11/13 09:19:01;;;;;;;1.23;0.50;;;;;;;15.29;34.34;99254.88;6065598;23;20461;-84
2022/11/13 09:22:28;;;;;;;0.73;0.50;;;;;;;14.95;34.62;99260.47;6064946;23;20030;-83
2022/11/13 09:29:39;;;;;;;1.17;0.60;;;;;;;13.54;36.47;99312.88;6080873;23;20131;-85
2022/11/13 09:32:47;;;;;;;;;;;;;;;;;;;;;
2022/11/13 09:36:19;;;;;;;1.23;0.60;;;;;;;14.24;37.81;99335.22;6082091;23;20029;-86
2022/11/13 09:39:15;;;;;;;0.70;0.60;;;;;;;17.47;37.24;99425.69;6083099;23;20100;-83
2022/11/13 09:42:24;;;;;;;2.15;0.60;;;;;;;17.89;33.68;99303.63;6108910;23;20018;-86
2022/11/13 09:46:41;;;;;;;;;;;;;;;;;;;;;
2022/11/13 09:59:22;;;;;;;;;;;;;;;;;;;;;
2022/11/13 10:07:11;;;;;;;;;;;;;;;;;;;;;
2022/11/13 10:10:36;;;;;;;2.25;0.73;;;;;;;13.25;37.80;99473.91;6013837;23;20019;-86
2022/11/13 10:13:37;;;;;;;3.05;0.60;;;;;;;11.85;38.65;99327.47;6028073;23;20034;-84
2022/11/13 10:16:52;;;;;;;1.88;0.52;;;;;;;12.51;38.87;99486.94;6004893;23;20079;-84
2022/11/13 10:19:55;;;;;;;8.25;0.80;;;;;;;12.02;39.70;99484.47;6003864;23;20015;-86
2022/11/13 10:23:00;;;;;;;1.92;0.65;;;;;;;11.73;40.33;99508.44;6042601;23;20019;-85
2022/11/13 10:26:40;;;;;;;2.60;0.80;;;;;;;11.29;40.14;99441.47;6002746;23;20024;-85
2022/11/13 10:30:00;;;;;;;0.63;0.57;;;;;;;11.28;40.92;99532.66;6023402;23;20026;-85
2022/11/13 10:38:01;;;;;;;1.50;0.35;;;;;;;10.65;42.52;99537.06;6081353;23;20033;-84
2022/11/13 10:41:32;;;;;;;2.78;0.50;;;;;;;9.84;43.18;99417.56;6085634;23;20460;-84
2022/11/13 10:44:54;;;;;;;1.70;0.90;;;;;;;10.27;43.67;99499.34;6087364;23;20018;-85
2022/11/13 10:48:51;;;;;;;;;;;;;;;;;;;;;
2022/11/13 10:57:21;;;;;;;0.60;0.50;;;;;;;8.87;45.44;99425.44;5993309;24;20047;-80
2022/11/13 11:01:10;;;;;;;;;;;;;;;;;;;;;
2022/11/13 11:15:13;;;;;;;2.97;0.40;;;;;;;9.15;45.39;99588.75;6083067;23;20346;-82
2022/11/13 11:19:15;;;;;;;2.88;0.50;;;;;;;8.04;46.47;99455.25;5976960;24;20024;-79
2022/11/13 11:22:44;;;;;;;1.75;0.50;;;;;;;7.89;46.95;99448.41;6003506;23;20019;-83
2022/11/13 11:25:56;;;;;;;1.23;0.50;;;;;;;8.61;46.67;99615.81;6050485;23;20026;-82
2022/11/13 11:29:05;;;;;;;0.88;0.50;;;;;;;6.92;47.17;99364.91;6072057;23;20027;-79
2022/11/13 11:31:57;;;;;;;1.50;0.43;;;;;;;7.46;47.56;99444.22;6045717;23;20067;-81
2022/11/13 11:34:53;;;;;;;0.60;0.40;;;;;;;8.30;47.69;99610.69;6069942;23;20018;-82
2022/11/13 11:37:53;;;;;;;0.40;0.40;;;;;;;8.28;48.33;99596.84;6024161;23;20019;-80
2022/11/13 11:40:41;;;;;;;1.35;0.40;;;;;;;8.49;48.03;99623.66;6079981;23;20335;-81
2022/11/13 11:43:44;;;;;;;1.35;0.50;;;;;;;8.64;47.86;99618.41;6026929;23;20041;-81
2022/11/13 11:46:29;;;;;;;;;;;;;;;8.72;47.63;99616.63;6045650;23;20018;-80
2022/11/13 11:49:14;;;;;;;0.75;0.50;;;;;;;8.68;47.33;99611.47;6046688;23;19927;-80
2022/11/13 11:52:10;;;;;;;0.88;0.60;;;;;;;9.11;47.64;99633.75;6071180;23;20022;-80
2022/11/13 11:55:28;;;;;;;1.10;0.77;;;;;;;9.23;47.90;99636.28;6069335;23;20097;-81
2022/11/13 11:58:31;;;;;;;1.77;1.17;;;;;;;9.10;47.65;99640.66;6044562;23;20465;-79
2022/11/13 12:01:36;;;;;;;3.78;0.52;;;;;;;9.08;47.42;99646.75;6026492;23;20070;-81
2022/11/13 12:04:31;;;;;;;5.35;0.60;;;;;;;9.02;47.62;99652.84;6006113;23;20022;-81
2022/11/13 12:07:34;;;;;;;1.35;0.40;;;;;;;8.83;47.38;99631.28;6069145;23;20022;-80
2022/11/13 12:10:25;;;;;;;1.98;0.50;;;;;;;8.69;48.45;99649.50;6027234;23;20136;-81
2022/11/13 12:13:28;;;;;;;0.65;0.40;;;;;;;8.29;49.21;99616.72;6050150;23;20441;-80
2022/11/13 12:16:29;;;;;;;1.38;0.60;;;;;;;8.59;49.40;99653.88;6076532;23;20021;-82
2022/11/13 12:19:50;;;;;;;1.27;0.60;;;;;;;8.52;48.79;99647.84;6097628;23;20011;-81
2022/11/13 12:22:50;;;;;;;3.60;0.70;;;;;;;8.58;48.68;99665.09;6098489;23;20037;-82
2022/11/13 12:25:52;;;;;;;3.75;0.50;;;;;;;8.58;48.51;99665.09;6052157;23;20018;-81
2022/11/13 12:29:06;;;;;;;0.50;0.40;;;;;;;8.29;47.94;99627.09;6098536;23;20046;-80
2022/11/13 12:32:28;;;;;;;3.47;0.40;;;;;;;8.30;48.54;99672.91;6052328;23;20524;-82
2022/11/13 12:35:20;;;;;;;2.67;0.52;;;;;;;7.95;48.89;99647.91;6072871;23;20351;-83
2022/11/13 12:38:19;;;;;;;0.90;0.47;;;;;;;8.17;48.74;99703.16;6072737;23;20291;-80
2022/11/13 12:41:19;;;;;;;1.58;0.75;;;;;;;7.99;48.73;99667.78;6052609;23;20018;-81
2022/11/13 12:44:26;;;;;;;6.82;0.93;;;;;;;8.12;48.76;99703.16;6071864;23;20018;-81
2022/11/13 12:47:11;;;;;;;0.68;0.50;;;;;;;8.06;49.23;99704.91;6100972;23;20017;-83
2022/11/13 12:50:24;;;;;;;3.05;1.75;;;;;;;8.04;49.74;99710.09;6054849;23;20014;-79
2022/11/13 12:53:26;;;;;;;1.55;0.85;;;;;;;7.63;49.81;99664.28;6099446;23;20019;-82
2022/11/13 12:56:31;;;;;;;0.90;0.65;;;;;;;7.96;50.32;99740.31;6076899;23;20034;-81
2022/11/13 12:59:19;;;;;;;1.67;1.08;;;;;;;7.90;50.54;99743.78;6104073;23;20014;-79
2022/11/13 13:02:07;;;;;;;1.85;0.75;;;;;;;7.64;50.79;99710.91;6058713;23;20018;-79
2022/11/13 13:05:29;;;;;;;2.08;0.95;;;;;;;7.34;51.30;99685.84;6077858;23;20018;-81
2022/11/13 13:08:53;;;;;;;2.55;0.70;;;;;;;7.67;51.59;99779.97;6054870;23;20127;-82
2022/11/13 13:12:04;;;;;;;2.10;0.80;;;;;;;7.55;52.25;99783.41;6060052;23;20029;-82
2022/11/13 13:15:17;;;;;;;1.45;0.70;;;;;;;7.38;52.83;99771.25;6082093;23;20022;-81
2022/11/13 13:18:34;;;;;;;1.42;1.00;;;;;;;6.53;53.60;99654.47;6011396;23;20024;-80
2022/11/13 13:21:57;;;;;;;2.92;0.70;;;;;;;6.57;53.91;99688.97;5952590;24;20643;-81
2022/11/13 13:25:10;;;;;;;6.40;1.02;;;;;;;7.15;54.98;99791.00;5949287;24;20459;-80
2022/11/13 13:28:07;;;;;;;0.85;0.60;;;;;;;6.91;55.01;99748.63;5952318;24;20375;-81
2022/11/13 13:31:07;;;;;;;1.52;0.70;;;;;;;7.14;55.29;99804.81;5910577;24;20039;-82
2022/11/13 13:34:35;;;;;;;11.38;0.90;;;;;;;7.16;54.83;99788.44;5910885;24;20409;-80
2022/11/13 13:37:44;;;;;;;0.93;0.70;;;;;;;7.08;55.16;99803.91;5953060;24;20463;-80
2022/11/13 13:40:58;;;;;;;1.23;0.50;;;;;;;6.85;55.11;99746.88;5954639;24;20044;-80
2022/11/13 13:43:58;;;;;;;0.93;0.60;;;;;;;7.16;55.20;99795.31;6012115;23;20019;-81
2022/11/13 13:46:50;;;;;;;1.63;0.50;;;;;;;6.46;54.85;99684.59;6016227;23;20055;-84
2022/11/13 13:49:36;;;;;;;1.10;0.40;;;;;;;6.94;54.82;99795.22;6011013;23;20031;-81
2022/11/13 13:52:28;;;;;;;0.77;0.52;;;;;;;7.15;54.70;99822.94;6050114;23;20380;-81
2022/11/13 13:55:31;;;;;;;5.00;0.73;;;;;;;6.93;54.75;99814.16;6074935;23;20334;-83
2022/11/13 13:58:29;;;;;;;3.03;0.70;;;;;;;6.70;54.50;99798.53;6053237;23;20018;-82
2022/11/13 14:01:26;;;;;;;0.70;0.57;;;;;;;6.71;54.67;99783.00;6097851;23;20025;-82
2022/11/13 14:04:18;;;;;;;1.85;0.73;;;;;;;7.07;55.10;99851.34;6097931;23;20018;-83
2022/11/13 14:07:18;;;;;;;1.65;0.70;;;;;;;7.04;55.28;99860.81;6051213;23;20421;-81
2022/11/13 14:10:11;;;;;;;3.25;0.88;;;;;;;6.94;55.32;99844.38;6068356;23;20034;-83
2022/11/13 14:13:28;;;;;;;0.65;0.57;;;;;;;6.83;55.69;99854.63;6053616;23;20018;-83
2022/11/13 14:16:14;;;;;;;1.63;0.90;;;;;;;6.61;55.74;99831.19;6073444;23;20022;-79
2022/11/13 14:19:09;;;;;;;2.05;1.17;;;;;;;5.36;55.75;99654.41;6077919;23;20404;-80
2022/11/13 14:22:07;;;;;;;2.45;0.80;;;;;;;6.17;55.76;99792.91;6074107;23;20095;-82
2022/11/13 14:25:25;;;;;;;6.32;1.75;;;;;;;6.13;55.88;99773.94;6045460;23;20018;-81
2022/11/13 14:28:28;;;;;;;1.85;0.93;;;;;;;6.18;56.09;99789.50;6099861;23;20341;-80
2022/11/13 14:31:18;;;;;;;1.63;0.98;;;;;;;5.49;56.27;99691.53;6098347;23;20066;-82
2022/11/13 14:34:18;;;;;;;1.67;1.10;;;;;;;6.78;56.04;99877.00;6099699;23;20021;-82
2022/11/13 14:37:58;;;;;;;2.05;0.90;;;;;;;6.84;55.85;99882.25;6101804;23;20022;-81
2022/11/13 14:40:47;;;;;;;1.15;0.65;;;;;;;6.78;55.59;99883.06;6049684;23;20042;-81
2022/11/13 14:43:35;;;;;;;0.93;0.60;;;;;;;6.75;55.85;99905.44;6078346;23;20101;-80
2022/11/13 14:47:46;;;;;;;;;;;;;;;;;;;;;
2022/11/13 14:50:52;;;;;;;1.73;0.45;;;;;;;5.88;55.28;99793.47;6099045;23;20018;-82
2022/11/13 14:53:55;;;;;;;2.03;1.00;;;;;;;6.66;55.80;99918.31;6073944;23;20026;-82
2022/11/13 14:57:11;;;;;;;1.15;0.70;;;;;;;5.95;55.75;99800.44;6073344;23;20018;-79
2022/11/13 15:00:13;;;;;;;1.55;0.73;;;;;;;5.67;55.65;99747.66;6055618;23;20010;-80
2022/11/13 15:04:11;;;;;;;2.95;1.00;;;;;;;5.49;55.73;99725.06;6041987;23;20452;-82
2022/11/13 15:07:02;;;;;;;1.38;0.80;;;;;;;6.14;55.25;99819.63;6075259;23;20025;-83
2022/11/13 15:10:09;;;;;;;;;;;;;;;;;;;;;
2022/11/13 15:13:20;;;;;;;1.73;0.60;;;;;;;5.42;55.30;99712.09;6017672;23;20033;-82
2022/11/13 15:16:06;;;;;;;0.82;0.60;;;;;;;6.33;55.69;99898.16;6078252;23;20075;-84
2022/11/13 15:19:43;;;;;;;1.05;0.70;;;;;;;5.76;55.62;99783.88;6044925;23;20033;-84
2022/11/13 15:23:45;;;;;;;1.77;0.70;;;;;;;6.75;55.39;99954.56;6016056;23;20076;-82
2022/11/13 15:26:54;;;;;;;1.13;0.73;;;;;;;5.97;55.77;99844.34;6014030;23;20078;-78